Time;durP1;ratioP1;P1;durP2;ratioP2;P2;SDS_P1;SDS_P2;PMS_P1;PMS_P2;Temp;Humidity;BMP_temperature;BMP_pressure;BME280_temperature;BME280_humidity;BME280_pressure;Samples;Min_cycle;Max_cycle;Signal;HPM_P1;HPM_P2
2024/03/20 00:00:19;;;;;;;12.23;6.38;;;;;;;14.22;55.42;101977.75;4943138;28;99917;-89
2024/03/20 00:02:46;;;;;;;11.30;6.25;;;;;;;14.23;55.45;101973.41;4956822;28;96924;-88
2024/03/20 00:05:13;;;;;;;16.30;6.80;;;;;;;14.25;55.56;101971.69;4954111;28;96822;-88
2024/03/20 00:07:39;;;;;;;15.68;7.18;;;;;;;14.25;55.72;101967.31;4945620;28;100568;-88
2024/03/20 00:10:07;;;;;;;13.98;6.43;;;;;;;14.25;55.41;101972.56;4958813;28;97865;-88
2024/03/20 00:12:33;;;;;;;13.75;6.72;;;;;;;14.23;55.66;101969.03;4958504;28;97251;-89
2024/03/20 00:14:59;;;;;;;12.70;7.00;;;;;;;14.21;55.77;101972.53;4950094;28;96965;-88
2024/03/20 00:17:24;;;;;;;15.20;8.52;;;;;;;14.22;55.61;101971.66;4966123;28;98041;-88
2024/03/20 00:19:50;;;;;;;18.80;7.60;;;;;;;14.22;55.44;101977.75;4962958;28;100197;-89
2024/03/20 00:22:17;;;;;;;15.93;8.15;;;;;;;14.23;55.54;101976.91;4942754;28;96856;-88
2024/03/20 00:24:42;;;;;;;16.25;6.63;;;;;;;14.22;55.51;101974.28;4948508;28;97053;-88
2024/03/20 00:27:08;;;;;;;13.43;6.72;;;;;;;14.21;55.67;101980.41;4944038;28;100419;-89
2024/03/20 00:29:33;;;;;;;15.25;6.85;;;;;;;14.21;55.89;101976.00;4961070;28;100200;-89
2024/03/20 00:31:59;;;;;;;15.60;7.82;;;;;;;14.21;55.85;101983.00;4957116;28;96773;-89
2024/03/20 00:34:26;;;;;;;13.10;6.40;;;;;;;14.21;55.89;101989.13;4946865;28;96897;-89
2024/03/20 00:36:51;;;;;;;13.65;7.75;;;;;;;14.21;55.76;101983.88;4942289;28;100686;-89
2024/03/20 00:39:18;;;;;;;14.13;7.05;;;;;;;14.21;55.71;101981.25;4964928;28;100438;-88
2024/03/20 00:41:44;;;;;;;16.30;7.57;;;;;;;14.23;55.74;101979.53;4953533;28;96828;-88
2024/03/20 00:44:09;;;;;;;18.75;7.18;;;;;;;14.23;55.84;101974.28;4968247;28;96807;-89
2024/03/20 00:46:35;;;;;;;14.90;6.68;;;;;;;14.23;55.58;101971.66;4946479;28;102516;-88
2024/03/20 00:49:00;;;;;;;14.38;7.18;;;;;;;14.23;55.62;101970.81;4963636;28;100104;-89
2024/03/20 00:51:25;;;;;;;15.70;6.90;;;;;;;14.22;55.43;101980.38;4942145;28;96821;-89
2024/03/20 00:53:51;;;;;;;14.48;7.00;;;;;;;14.20;55.53;101983.88;4961018;28;96876;-88
2024/03/20 00:56:17;;;;;;;13.32;7.20;;;;;;;14.18;55.65;101975.97;4940316;28;100233;-88
2024/03/20 00:58:43;;;;;;;16.73;6.70;;;;;;;14.14;55.58;101971.53;4940079;28;99096;-88
2024/03/20 01:01:08;;;;;;;15.80;7.32;;;;;;;14.12;55.83;101980.22;4962775;28;96859;-88
2024/03/20 01:03:33;;;;;;;14.85;6.93;;;;;;;14.11;55.85;101979.34;4939244;28;96956;-88
2024/03/20 01:05:59;;;;;;;12.95;6.63;;;;;;;14.10;55.83;101977.59;4960503;28;100291;-88
2024/03/20 01:08:24;;;;;;;14.35;6.97;;;;;;;14.11;55.98;101975.84;4942508;28;100164;-89
2024/03/20 01:10:50;;;;;;;16.30;7.60;;;;;;;14.09;55.86;101976.69;4959558;28;96909;-89
2024/03/20 01:13:17;;;;;;;14.48;7.43;;;;;;;14.08;55.80;101974.03;4948108;28;96935;-89
2024/03/20 01:15:43;;;;;;;17.75;8.10;;;;;;;14.07;55.89;101970.53;4939715;28;100517;-89
2024/03/20 01:18:08;;;;;;;15.57;7.20;;;;;;;14.05;55.89;101963.53;4956251;28;99921;-89
2024/03/20 01:20:33;;;;;;;17.63;7.30;;;;;;;14.04;55.93;101961.75;4955313;28;96749;-89
2024/03/20 01:22:59;;;;;;;15.80;7.22;;;;;;;14.03;56.06;101958.25;4964840;28;96960;-89
2024/03/20 01:25:24;;;;;;;18.00;8.18;;;;;;;14.03;55.88;101952.13;4955695;28;100688;-89
2024/03/20 01:27:50;;;;;;;15.75;7.80;;;;;;;14.03;55.97;101958.25;4939328;28;99978;-89
2024/03/20 01:30:15;;;;;;;16.80;7.95;;;;;;;14.02;56.01;101948.59;4957916;28;96815;-89
2024/03/20 01:32:41;;;;;;;18.33;8.18;;;;;;;14.03;55.85;101954.75;4957791;28;96908;-89
2024/03/20 01:35:07;;;;;;;16.27;8.25;;;;;;;14.01;55.65;101949.47;4962767;28;99843;-89
2024/03/20 01:37:33;;;;;;;22.58;8.52;;;;;;;14.01;55.92;101953.81;4955655;28;99870;-89
2024/03/20 01:39:58;;;;;;;14.50;7.85;;;;;;;13.99;55.78;101945.94;4955890;28;97709;-89
2024/03/20 01:42:24;;;;;;;18.50;8.45;;;;;;;13.97;55.87;101939.75;4944565;28;97001;-89
2024/03/20 01:44:49;;;;;;;16.75;7.70;;;;;;;13.95;55.98;101946.75;4954825;28;97964;-89
2024/03/20 01:47:14;;;;;;;15.38;7.93;;;;;;;13.90;55.79;101943.16;4949907;28;99891;-89
2024/03/20 01:49:40;;;;;;;18.98;8.00;;;;;;;13.87;56.18;101956.25;4959976;28;96786;-89
2024/03/20 01:52:07;;;;;;;15.82;7.80;;;;;;;13.83;56.22;101952.69;4963191;28;96859;-89
2024/03/20 01:54:33;;;;;;;18.60;7.88;;;;;;;13.82;56.17;101955.28;4942905;28;99245;-89
2024/03/20 01:56:58;;;;;;;20.05;7.95;;;;;;;13.81;56.11;101946.50;4946440;28;100267;-89
2024/03/20 01:59:24;;;;;;;14.68;7.80;;;;;;;13.79;56.18;101949.97;4956777;28;96822;-89
2024/03/20 02:01:49;;;;;;;17.55;8.93;;;;;;;13.77;56.21;101956.94;4956604;28;96938;-89
2024/03/20 02:04:15;;;;;;;20.02;8.27;;;;;;;13.73;56.27;101949.88;4945836;28;105165;-88
2024/03/20 02:06:40;;;;;;;17.63;8.02;;;;;;;13.70;56.25;101948.06;4944510;28;100381;-89
2024/03/20 02:09:07;;;;;;;15.70;7.68;;;;;;;13.68;56.20;101948.03;4945846;28;96687;-89
2024/03/20 02:11:33;;;;;;;16.77;7.72;;;;;;;13.66;56.27;101947.13;4950540;28;96874;-88
2024/03/20 02:13:59;;;;;;;16.30;7.57;;;;;;;13.64;56.22;101938.38;4955970;28;99266;-89
2024/03/20 02:16:26;;;;;;;18.55;8.52;;;;;;;13.62;56.42;101934.84;4961283;28;100442;-89
2024/03/20 02:18:53;;;;;;;18.30;8.38;;;;;;;13.61;56.32;101943.53;4948248;28;96909;-88
2024/03/20 02:21:20;;;;;;;18.40;7.95;;;;;;;13.60;56.43;101935.66;4958934;28;96851;-89
2024/03/20 02:23:45;;;;;;;17.73;7.80;;;;;;;13.56;56.39;101953.06;4952887;28;97712;-89
2024/03/20 02:26:11;;;;;;;14.75;7.38;;;;;;;13.51;56.52;101944.22;4957430;28;97594;-90
2024/03/20 02:28:40;;;;;;;16.95;7.75;;;;;;;13.48;56.70;101945.06;4943590;28;96870;-89
2024/03/20 02:31:10;;;;;;;15.52;8.15;;;;;;;13.48;56.76;101946.81;4956913;28;96917;-89
2024/03/20 02:33:36;;;;;;;15.05;7.63;;;;;;;13.46;56.63;101946.78;4958621;28;99634;-89
2024/03/20 02:36:03;;;;;;;15.63;7.82;;;;;;;13.44;56.77;101942.34;4959472;28;100391;-89
2024/03/20 02:38:34;;;;;;;16.27;8.57;;;;;;;13.42;56.65;101949.31;4945746;28;96798;-89
2024/03/20 02:41:00;;;;;;;15.82;7.65;;;;;;;13.42;56.75;101944.06;4958272;28;96831;-89
2024/03/20 02:43:26;;;;;;;16.17;7.72;;;;;;;13.42;56.76;101938.81;4960013;28;100152;-89
2024/03/20 02:45:53;;;;;;;17.73;7.68;;;;;;;13.43;56.77;101932.75;4954254;28;97513;-89
2024/03/20 02:48:18;;;;;;;18.25;8.13;;;;;;;13.42;56.81;101928.34;4964567;28;96835;-89
2024/03/20 02:50:44;;;;;;;16.85;7.90;;;;;;;13.40;56.88;101925.69;4946696;28;97094;-89
2024/03/20 02:53:10;;;;;;;14.30;7.43;;;;;;;13.39;56.70;101923.94;4942343;28;99659;-88
2024/03/20 02:55:40;;;;;;;18.02;7.78;;;;;;;13.37;56.77;101930.00;4962630;28;97835;-88
2024/03/20 02:58:05;;;;;;;18.77;8.18;;;;;;;13.35;56.84;101926.47;4953173;28;96887;-88
2024/03/20 03:00:31;;;;;;;16.90;8.40;;;;;;;13.31;56.76;101938.63;4957357;28;97023;-89
2024/03/20 03:02:58;;;;;;;15.60;8.15;;;;;;;13.29;56.93;101935.06;4956429;28;99043;-88
2024/03/20 03:05:25;;;;;;;17.88;8.25;;;;;;;13.26;56.96;101932.38;4942846;28;100096;-88
2024/03/20 03:07:51;;;;;;;21.20;8.77;;;;;;;13.22;56.99;101935.81;4954709;28;96881;-89
2024/03/20 03:10:17;;;;;;;17.17;8.45;;;;;;;13.21;57.06;101928.78;4949955;28;96906;-89
2024/03/20 03:12:43;;;;;;;16.75;8.32;;;;;;;13.18;56.99;101927.00;4959064;28;100268;-88
2024/03/20 03:15:09;;;;;;;17.63;8.70;;;;;;;13.18;56.95;101932.25;4941881;28;100456;-88
2024/03/20 03:17:34;;;;;;;22.92;9.25;;;;;;;13.18;57.16;101928.75;4956298;28;96771;-89
2024/03/20 03:20:00;;;;;;;16.95;8.32;;;;;;;13.18;57.13;101924.38;4942813;28;96912;-89
2024/03/20 03:22:25;;;;;;;20.60;8.90;;;;;;;13.16;57.01;101925.22;4958541;28;100573;-89
2024/03/20 03:24:51;;;;;;;18.15;9.00;;;;;;;13.14;57.04;101928.69;4944823;28;100876;-89
2024/03/20 03:27:16;;;;;;;19.00;9.70;;;;;;;13.13;57.13;101932.16;4954764;28;96824;-88
2024/03/20 03:29:42;;;;;;;20.45;9.15;;;;;;;13.11;57.00;101927.75;4957305;28;96815;-89
2024/03/20 03:32:07;;;;;;;18.27;8.43;;;;;;;13.09;57.01;101934.69;4954311;28;100687;-89
2024/03/20 03:34:32;;;;;;;22.65;9.27;;;;;;;13.04;57.11;101918.00;4957246;28;97804;-89
2024/03/20 03:36:58;;;;;;;17.35;8.57;;;;;;;13.03;56.92;101926.69;4940101;28;96849;-89
2024/03/20 03:39:24;;;;;;;20.08;9.85;;;;;;;12.99;57.02;101928.38;4939276;28;96879;-89
2024/03/20 03:41:49;;;;;;;21.50;9.13;;;;;;;12.98;57.19;101928.34;4958726;28;100462;-90
2024/03/20 03:44:15;;;;;;;20.40;9.32;;;;;;;12.96;57.29;101930.94;4958982;28;100077;-89
2024/03/20 03:46:41;;;;;;;20.90;9.43;;;;;;;12.93;57.20;101929.13;4964809;28;96854;-88
2024/03/20 03:49:06;;;;;;;20.20;9.23;;;;;;;12.93;57.08;101936.13;4958509;28;97048;-89
2024/03/20 03:51:33;;;;;;;20.88;9.50;;;;;;;12.90;57.16;101933.44;4956926;28;100425;-89
2024/03/20 03:53:58;;;;;;;16.77;8.45;;;;;;;12.88;57.17;101940.38;4958995;28;100176;-88
2024/03/20 03:56:24;;;;;;;20.83;10.10;;;;;;;12.85;57.38;101937.69;4962285;28;96896;-88
2024/03/20 03:58:49;;;;;;;20.92;9.57;;;;;;;12.83;57.27;101934.16;4961230;28;96989;-88
2024/03/20 04:01:15;;;;;;;20.60;9.75;;;;;;;12.81;57.13;101935.88;4948589;28;99440;-89
2024/03/20 04:03:41;;;;;;;16.85;9.05;;;;;;;12.79;57.27;101934.97;4951098;28;100637;-88
2024/03/20 04:06:06;;;;;;;19.48;10.32;;;;;;;12.75;57.23;101928.78;4963347;28;96871;-88
2024/03/20 04:08:31;;;;;;;18.00;10.18;;;;;;;12.73;57.30;101939.22;4961852;28;100562;-89
2024/03/20 04:10:57;;;;;;;23.95;11.15;;;;;;;12.70;57.30;101936.50;4960327;28;100456;-89
2024/03/20 04:13:22;;;;;;;22.70;10.52;;;;;;;12.69;57.29;101937.38;4961139;28;100044;-89
2024/03/20 04:15:48;;;;;;;23.33;10.38;;;;;;;12.68;57.47;101932.13;4959019;28;96837;-88
2024/03/20 04:18:14;;;;;;;20.67;10.63;;;;;;;12.66;57.38;101923.34;4965025;28;96904;-88
2024/03/20 04:20:40;;;;;;;21.75;9.82;;;;;;;12.64;57.46;101940.72;4962274;28;100284;-89
2024/03/20 04:23:06;;;;;;;19.10;9.13;;;;;;;12.63;57.51;101942.47;4950283;28;100667;-89
2024/03/20 04:25:31;;;;;;;21.40;9.30;;;;;;;12.63;57.43;101944.22;4966368;28;96865;-89
2024/03/20 04:27:57;;;;;;;18.58;9.52;;;;;;;12.61;57.51;101940.69;4969175;28;96883;-89
2024/03/20 04:30:23;;;;;;;16.15;9.52;;;;;;;12.57;57.45;101938.00;4961991;28;99454;-88
2024/03/20 04:32:48;;;;;;;22.88;9.77;;;;;;;12.56;57.49;101941.44;4966403;28;97401;-89
2024/03/20 04:35:14;;;;;;;20.50;10.00;;;;;;;12.51;57.46;101932.63;4942905;28;96776;-89
2024/03/20 04:37:39;;;;;;;21.33;9.73;;;;;;;12.50;57.56;101943.06;4962305;28;96931;-88
2024/03/20 04:40:06;;;;;;;18.45;9.80;;;;;;;12.47;57.49;101943.88;4965282;28;100760;-89
2024/03/20 04:42:33;;;;;;;17.35;9.43;;;;;;;12.46;57.49;101943.81;4963693;28;100647;-89
2024/03/20 04:44:59;;;;;;;17.52;9.50;;;;;;;12.44;57.66;101942.91;4965769;28;97008;-89
2024/03/20 04:47:25;;;;;;;21.92;9.57;;;;;;;12.41;57.63;101948.97;4950773;28;96879;-89
2024/03/20 04:49:50;;;;;;;22.52;9.93;;;;;;;12.38;57.64;101948.91;4965908;28;100555;-89
2024/03/20 04:52:16;;;;;;;21.80;9.95;;;;;;;12.35;57.59;101944.50;4957454;28;100265;-88
2024/03/20 04:54:41;;;;;;;20.67;9.40;;;;;;;12.35;57.64;101947.13;4956987;28;96809;-88
2024/03/20 04:57:07;;;;;;;19.00;9.23;;;;;;;12.34;57.70;101952.31;4951216;28;96995;-88
2024/03/20 04:59:32;;;;;;;18.90;9.90;;;;;;;12.32;57.86;101949.66;4958665;28;97663;-88
2024/03/20 05:01:58;;;;;;;19.65;10.10;;;;;;;12.32;57.74;101951.38;4946367;28;100295;-88
2024/03/20 05:04:23;;;;;;;22.67;10.20;;;;;;;12.32;58.02;101954.88;4958149;28;96769;-88
2024/03/20 05:06:49;;;;;;;21.02;10.30;;;;;;;12.31;58.06;101954.84;4964320;28;96969;-89
2024/03/20 05:09:14;;;;;;;21.55;10.52;;;;;;;12.32;57.92;101948.78;4954516;28;100799;-89
2024/03/20 05:11:39;;;;;;;20.42;10.43;;;;;;;12.32;58.14;101954.88;4942786;28;100241;-89
2024/03/20 05:14:05;;;;;;;21.10;10.63;;;;;;;12.34;58.16;101947.06;4965550;28;96770;-90
2024/03/20 05:16:30;;;;;;;20.70;10.32;;;;;;;12.34;57.92;101950.56;4945784;28;97060;-89
2024/03/20 05:18:56;;;;;;;20.60;10.07;;;;;;;12.33;58.15;101951.41;4945834;28;100251;-89
2024/03/20 05:21:21;;;;;;;19.30;9.48;;;;;;;12.34;58.17;101950.56;4955435;28;100380;-89
2024/03/20 05:23:46;;;;;;;17.60;10.68;;;;;;;12.34;58.13;101957.53;4947087;28;96823;-89
2024/03/20 05:26:12;;;;;;;19.52;10.00;;;;;;;12.32;58.01;101954.88;4946488;28;97016;-89
2024/03/20 05:28:37;;;;;;;20.65;9.80;;;;;;;12.32;58.02;101956.63;4960015;28;100544;-88
2024/03/20 05:31:03;;;;;;;21.13;10.23;;;;;;;12.31;57.95;101950.47;4947254;28;100114;-88
2024/03/20 05:33:28;;;;;;;20.15;10.00;;;;;;;12.32;58.08;101957.50;4948323;28;96940;-88
2024/03/20 05:35:54;;;;;;;21.05;10.75;;;;;;;12.32;58.08;101959.25;4948438;28;96899;-88
2024/03/20 05:38:19;;;;;;;21.52;10.20;;;;;;;12.30;58.15;101953.97;4957275;28;97635;-88
2024/03/20 05:40:44;;;;;;;20.77;10.55;;;;;;;12.27;58.09;101953.00;4946203;28;100436;-89
2024/03/20 05:43:10;;;;;;;20.55;10.60;;;;;;;12.24;58.31;101956.41;4964068;28;96871;-89
2024/03/20 05:45:35;;;;;;;23.83;11.05;;;;;;;12.24;58.21;101961.66;4944947;28;96921;-89
2024/03/20 05:48:01;;;;;;;20.05;10.00;;;;;;;12.23;58.21;101959.91;4968347;28;97800;-89
2024/03/20 05:50:27;;;;;;;22.65;11.63;;;;;;;12.22;58.02;101960.75;4962168;28;97549;-89
2024/03/20 05:52:53;;;;;;;24.08;11.25;;;;;;;12.21;58.09;101964.22;4949222;28;96874;-88
2024/03/20 05:55:20;;;;;;;19.67;10.63;;;;;;;12.21;58.23;101959.00;4952793;28;96816;-87
2024/03/20 05:57:50;;;;;;;22.90;11.00;;;;;;;12.20;58.09;101962.44;4936876;28;100721;-87
2024/03/20 06:00:18;;;;;;;22.48;11.00;;;;;;;12.15;58.36;101962.31;4939173;28;100151;-88
2024/03/20 06:02:44;;;;;;;24.15;11.82;;;;;;;12.13;58.34;101963.13;4932554;28;96908;-87
2024/03/20 06:05:09;;;;;;;22.90;10.57;;;;;;;12.13;58.58;101958.78;4953691;28;96872;-85
2024/03/20 06:07:36;;;;;;;21.42;11.02;;;;;;;12.12;58.46;101961.34;4946200;28;100451;-87
2024/03/20 06:10:03;;;;;;;22.00;11.07;;;;;;;12.13;58.48;101960.53;4949805;28;97428;-86
2024/03/20 06:12:28;;;;;;;22.92;11.73;;;;;;;12.13;58.43;101969.25;4930729;28;97009;-86
2024/03/20 06:14:53;;;;;;;23.77;12.07;;;;;;;12.14;58.42;101963.19;4952351;28;96972;-87
2024/03/20 06:17:19;;;;;;;23.48;11.48;;;;;;;12.16;58.60;101969.31;4938407;28;99831;-87
2024/03/20 06:19:44;;;;;;;27.40;12.80;;;;;;;12.18;58.65;101964.13;4950688;28;99908;-87
2024/03/20 06:22:10;;;;;;;24.70;12.27;;;;;;;12.21;58.52;101976.38;4949664;28;96946;-86
2024/03/20 06:24:37;;;;;;;22.83;11.77;;;;;;;12.21;58.59;101965.94;4929065;28;96942;-88
2024/03/20 06:27:03;;;;;;;23.90;12.00;;;;;;;12.22;58.72;101971.19;4933860;28;100937;-89
2024/03/20 06:29:29;;;;;;;26.25;11.23;;;;;;;12.25;58.76;101973.91;4937430;28;100287;-89
2024/03/20 06:31:57;;;;;;;20.45;11.15;;;;;;;12.28;59.06;101976.59;4956119;28;96748;-88
2024/03/20 06:34:22;;;;;;;23.65;11.10;;;;;;;12.33;58.71;101976.69;4948842;28;96868;-89
2024/03/20 06:36:48;;;;;;;24.35;12.23;;;;;;;12.37;58.80;101974.19;4950337;28;97678;-84
2024/03/20 06:39:14;;;;;;;20.38;11.65;;;;;;;12.42;58.73;101978.63;4950583;28;100222;-87
2024/03/20 06:41:40;;;;;;;23.30;11.90;;;;;;;12.44;59.01;101979.56;4952554;28;96964;-86
2024/03/20 06:44:07;;;;;;;21.20;10.60;;;;;;;12.46;58.85;101986.59;4930502;28;96890;-85
2024/03/20 06:46:32;;;;;;;23.73;12.27;;;;;;;12.47;58.88;101982.25;4947950;28;100499;-86
2024/03/20 06:48:58;;;;;;;22.58;12.10;;;;;;;12.49;58.95;101991.00;4945266;28;100397;-86
2024/03/20 06:51:25;;;;;;;24.05;12.05;;;;;;;12.55;59.00;101992.03;4940320;28;96849;-86
2024/03/20 06:53:50;;;;;;;23.13;12.32;;;;;;;12.61;59.13;101988.66;4952392;28;96792;-86
2024/03/20 06:56:18;;;;;;;22.25;11.95;;;;;;;12.68;59.05;101995.81;4951047;28;97960;-87
2024/03/20 06:58:44;;;;;;;22.52;12.10;;;;;;;12.75;59.14;101995.09;4951791;28;100229;-86
2024/03/20 07:01:11;;;;;;;24.00;12.82;;;;;;;12.83;58.99;101991.75;4944265;28;96946;-86
2024/03/20 07:03:37;;;;;;;25.98;12.45;;;;;;;12.92;59.17;101994.56;4946520;28;97005;-87
2024/03/20 07:06:03;;;;;;;27.25;12.93;;;;;;;13.01;59.48;101988.66;4940876;28;100158;-83
2024/03/20 07:08:30;;;;;;;23.65;13.10;;;;;;;13.14;59.56;101994.19;4957499;28;100813;-86
2024/03/20 07:10:56;;;;;;;24.67;13.55;;;;;;;13.30;59.62;101997.13;4965866;28;96862;-85
2024/03/20 07:13:22;;;;;;;28.63;12.57;;;;;;;13.43;59.38;101993.91;4946243;28;97049;-85
2024/03/20 07:15:47;;;;;;;23.98;12.02;;;;;;;13.55;59.28;101993.25;4925654;28;100883;-84
2024/03/20 07:18:13;;;;;;;24.52;12.60;;;;;;;13.69;59.28;101993.50;4955835;28;97579;-84
2024/03/20 07:20:38;;;;;;;26.60;11.63;;;;;;;13.83;59.36;102001.59;4944830;28;96823;-84
2024/03/20 07:23:04;;;;;;;23.88;11.85;;;;;;;13.97;59.29;101997.47;4930514;28;96911;-81
2024/03/20 07:25:31;;;;;;;23.73;12.40;;;;;;;14.13;59.22;101996.00;4947892;28;98028;-85
2024/03/20 07:27:57;;;;;;;27.65;12.25;;;;;;;14.31;59.24;102002.41;4927215;28;101025;-84
2024/03/20 07:30:23;;;;;;;23.08;11.43;;;;;;;14.48;59.23;102000.91;4947886;28;97082;-85
2024/03/20 07:32:49;;;;;;;22.92;11.70;;;;;;;14.66;59.16;102000.34;4945461;28;97041;-85
2024/03/20 07:35:15;;;;;;;25.55;11.02;;;;;;;14.79;58.96;101996.13;4951474;28;100745;-85
2024/03/20 07:37:42;;;;;;;28.35;11.85;;;;;;;14.93;58.71;101993.69;4947891;28;100647;-85
2024/03/20 07:40:08;;;;;;;22.88;11.52;;;;;;;15.08;58.89;102001.78;4945289;28;96836;-85
2024/03/20 07:42:34;;;;;;;20.80;9.98;;;;;;;15.21;58.45;102001.06;4949922;28;96949;-85
2024/03/20 07:45:00;;;;;;;20.15;8.18;;;;;;;15.34;58.35;101994.19;4957776;28;100868;-85
2024/03/20 07:47:26;;;;;;;18.67;8.77;;;;;;;15.49;58.08;101995.22;4947757;28;100484;-84
2024/03/20 07:49:52;;;;;;;16.30;7.95;;;;;;;15.63;58.22;102004.13;4935040;28;96980;-85
2024/03/20 07:52:18;;;;;;;16.15;7.50;;;;;;;15.81;58.08;101998.22;4944984;28;96860;-85
2024/03/20 07:54:44;;;;;;;19.42;8.35;;;;;;;16.04;58.08;102002.78;4934773;28;100389;-85
2024/03/20 07:57:09;;;;;;;16.63;6.50;;;;;;;16.29;57.96;101998.59;4953394;28;100445;-87
2024/03/20 07:59:35;;;;;;;18.50;5.63;;;;;;;16.55;57.44;101998.78;4947521;28;96811;-87
2024/03/20 08:02:00;;;;;;;14.65;5.53;;;;;;;16.77;57.09;102001.53;4953765;28;96822;-86
2024/03/20 08:04:26;;;;;;;12.90;5.10;;;;;;;16.92;56.54;101991.97;4954251;28;105719;-86
2024/03/20 08:06:52;;;;;;;11.32;5.22;;;;;;;17.09;56.44;101996.44;4944633;28;100234;-87
2024/03/20 08:09:19;;;;;;;14.52;5.32;;;;;;;17.24;56.40;102000.91;4958375;28;96989;-87
2024/03/20 08:11:44;;;;;;;16.77;6.03;;;;;;;17.42;56.36;102002.72;4951087;28;97058;-87
2024/03/20 08:14:10;;;;;;;16.25;5.50;;;;;;;17.58;55.96;102004.50;4952695;28;100619;-91
2024/03/20 08:16:37;;;;;;;14.82;4.22;;;;;;;17.72;55.33;101999.25;4954559;28;99126;-86
2024/03/20 08:19:03;;;;;;;16.08;4.85;;;;;;;17.84;55.15;102004.56;4943883;28;96985;-87
2024/03/20 08:21:29;;;;;;;13.02;5.30;;;;;;;17.99;54.61;102008.09;4937586;28;96926;-86
2024/03/20 08:23:56;;;;;;;15.45;4.57;;;;;;;18.15;54.16;102009.88;4951853;28;100469;-91
2024/03/20 08:26:22;;;;;;;12.27;4.65;;;;;;;18.25;53.94;102006.34;4947457;28;100625;-87
2024/03/20 08:28:51;;;;;;;12.35;4.20;;;;;;;18.33;53.39;102013.38;4957793;28;96734;-86
2024/03/20 08:31:16;;;;;;;;;;;;;;;18.37;54.38;102009.84;4953316;28;97044;-86
2024/03/20 08:33:42;;;;;;;14.18;4.55;;;;;;;18.43;53.11;102010.72;4951469;28;97929;-86
2024/03/20 08:36:08;;;;;;;15.68;5.55;;;;;;;18.48;53.74;102005.41;4937403;28;100155;-86
2024/03/20 08:38:35;;;;;;;15.43;6.15;;;;;;;18.61;53.98;102007.16;4953084;28;96989;-86
2024/03/20 08:41:01;;;;;;;13.07;5.80;;;;;;;18.81;54.17;102007.13;4940709;28;96934;-86
2024/03/20 08:43:26;;;;;;;14.93;6.05;;;;;;;19.01;54.13;102006.19;4949819;28;97900;-86
2024/03/20 08:45:52;;;;;;;19.23;6.13;;;;;;;19.23;53.55;102000.78;4936222;28;100610;-86
2024/03/20 08:48:18;;;;;;;17.88;5.57;;;;;;;19.44;53.00;102003.31;4957608;28;96801;-86
2024/03/20 08:50:43;;;;;;;19.55;6.05;;;;;;;19.60;51.53;102004.09;4951864;28;96928;-86
2024/03/20 08:53:11;;;;;;;14.60;5.88;;;;;;;19.66;50.75;102005.81;4954840;28;100317;-86
2024/03/20 08:55:37;;;;;;;16.05;5.78;;;;;;;19.66;49.96;102000.53;4937651;28;100321;-86
2024/03/20 08:58:03;;;;;;;17.70;6.28;;;;;;;19.60;49.43;102001.47;4953270;28;96904;-86
2024/03/20 09:00:28;;;;;;;19.23;6.45;;;;;;;19.55;49.18;102006.81;4955538;28;96876;-86
2024/03/20 09:02:53;;;;;;;10.68;5.15;;;;;;;19.52;49.18;101998.00;4955581;28;97532;-86
2024/03/20 09:05:21;;;;;;;13.85;5.22;;;;;;;19.47;48.98;102000.66;4949015;28;100547;-86
2024/03/20 09:07:46;;;;;;;17.42;5.25;;;;;;;19.41;49.59;101995.38;4934921;28;97076;-86
2024/03/20 09:10:11;;;;;;;12.95;5.50;;;;;;;19.35;49.43;101998.09;4954913;28;96918;-86
2024/03/20 09:12:37;;;;;;;18.50;5.68;;;;;;;19.29;49.25;102001.66;4938169;28;100553;-86
2024/03/20 09:15:05;;;;;;;16.08;5.60;;;;;;;19.29;49.08;101996.34;4945971;28;100815;-86
2024/03/20 09:17:31;;;;;;;17.95;5.90;;;;;;;19.28;49.35;101991.06;4957432;28;96903;-86
2024/03/20 09:19:56;;;;;;;15.60;6.38;;;;;;;19.28;49.46;101996.38;4953773;28;96872;-86
2024/03/20 09:22:22;;;;;;;17.38;5.88;;;;;;;19.29;49.39;101998.13;4950920;28;100764;-86
2024/03/20 09:24:47;;;;;;;14.05;5.57;;;;;;;19.33;49.57;102000.72;4950162;28;100334;-86
2024/03/20 09:27:14;;;;;;;13.05;6.03;;;;;;;19.41;49.72;102000.69;4957031;28;96862;-86
2024/03/20 09:29:40;;;;;;;19.42;6.13;;;;;;;19.49;49.45;102004.16;4950812;28;96987;-86
2024/03/20 09:32:06;;;;;;;15.77;5.90;;;;;;;19.50;48.69;101998.00;4937228;28;100833;-86
2024/03/20 09:34:32;;;;;;;13.60;5.78;;;;;;;19.43;48.79;102001.59;4956539;28;100685;-86
2024/03/20 09:36:58;;;;;;;14.02;5.70;;;;;;;19.38;48.72;102000.72;4942013;28;97495;-86
2024/03/20 09:39:24;;;;;;;12.98;5.80;;;;;;;19.38;48.78;101991.00;4950450;28;96742;-86
2024/03/20 09:41:49;;;;;;;13.88;6.05;;;;;;;19.42;49.29;102001.59;4935711;28;100822;-86
2024/03/20 09:44:15;;;;;;;16.17;6.32;;;;;;;19.51;48.87;101998.88;4937057;28;100422;-86
2024/03/20 09:46:41;;;;;;;15.80;6.20;;;;;;;19.60;48.83;101993.53;4953062;28;96908;-86
2024/03/20 09:49:08;;;;;;;13.13;5.68;;;;;;;19.70;48.90;101997.00;4951809;28;96881;-86
2024/03/20 09:51:35;;;;;;;16.05;6.50;;;;;;;19.81;48.82;101997.81;4950234;28;100434;-86
2024/03/20 09:54:01;;;;;;;19.15;6.32;;;;;;;19.87;48.39;101999.53;4942435;28;100098;-86
2024/03/20 09:56:29;;;;;;;16.45;6.00;;;;;;;19.89;48.63;101993.34;4939576;28;96901;-87
2024/03/20 09:58:55;;;;;;;18.88;5.85;;;;;;;19.92;48.60;101997.72;4936582;28;96915;-86
2024/03/20 10:01:21;;;;;;;19.00;7.30;;;;;;;19.95;47.96;101995.06;4952956;28;97812;-86
2024/03/20 10:03:53;;;;;;;18.35;7.13;;;;;;;20.00;47.84;101992.38;4930107;28;100617;-86
2024/03/20 10:06:27;;;;;;;19.63;8.05;;;;;;;20.03;47.79;101984.41;4950003;28;96957;-87
2024/03/20 10:08:53;;;;;;;17.80;7.65;;;;;;;20.05;48.05;101980.84;4930294;28;96962;-86
2024/03/20 10:11:19;;;;;;;19.15;7.57;;;;;;;20.07;48.07;101984.38;4936533;28;100619;-87
2024/03/20 10:13:45;;;;;;;15.88;6.95;;;;;;;20.07;48.08;101979.09;4948252;28;100147;-87
2024/03/20 10:16:13;;;;;;;17.38;8.65;;;;;;;20.11;47.64;101982.56;4955174;28;96860;-87
2024/03/20 10:18:39;;;;;;;22.27;8.00;;;;;;;20.11;47.34;101980.81;4940633;28;96936;-86
2024/03/20 10:21:09;;;;;;;20.60;7.53;;;;;;;20.12;47.58;101984.31;4936883;28;100525;-86
2024/03/20 10:23:44;;;;;;;17.83;8.43;;;;;;;20.15;47.31;101986.94;4950316;28;100909;-87
2024/03/20 10:26:14;;;;;;;;;;;;;;;20.21;48.48;101976.28;4947533;28;96956;-86
2024/03/20 10:28:40;;;;;;;16.55;8.57;;;;;;;20.31;48.01;101983.25;4949236;28;96939;-86
2024/03/20 10:31:10;;;;;;;16.33;7.65;;;;;;;20.41;47.52;101980.50;4953687;28;98121;-87
2024/03/20 10:33:37;;;;;;;19.85;8.68;;;;;;;20.52;47.25;101970.69;4947794;28;99030;-86
2024/03/20 10:36:04;;;;;;;20.08;7.90;;;;;;;20.62;47.11;101979.44;4936806;28;96833;-86
2024/03/20 10:38:34;;;;;;;16.63;7.90;;;;;;;20.66;46.71;101974.09;4937659;28;97410;-88
2024/03/20 10:41:01;;;;;;;18.17;7.50;;;;;;;20.66;46.79;101981.13;4935899;28;100396;-86
2024/03/20 10:43:28;;;;;;;20.02;9.45;;;;;;;20.69;47.07;101975.81;4948427;28;97524;-86
2024/03/20 10:45:54;;;;;;;17.85;7.78;;;;;;;20.82;46.80;101974.78;4950963;28;97143;-86
2024/03/20 10:48:22;;;;;;;20.70;8.35;;;;;;;20.90;46.35;101969.38;4941112;28;96942;-86
2024/03/20 10:50:54;;;;;;;21.27;9.10;;;;;;;20.94;46.25;101976.38;4950321;28;97951;-86
2024/03/20 10:53:22;;;;;;;22.40;8.43;;;;;;;20.95;46.13;101978.16;4954123;28;100161;-86
2024/03/20 10:55:50;;;;;;;22.23;7.68;;;;;;;20.90;45.59;101974.69;4930246;28;96909;-86
2024/03/20 10:58:17;;;;;;;16.00;8.40;;;;;;;20.85;45.99;101979.16;4953165;28;96998;-86
2024/03/20 11:00:50;;;;;;;17.52;7.95;;;;;;;20.80;45.93;101962.44;4949153;28;100676;-87
2024/03/20 11:03:44;;;;;;;17.38;8.13;;;;;;;20.75;46.27;101967.81;4933729;28;100879;-87
2024/03/20 11:08:55;;;;;;;17.75;8.30;;;;;;;20.76;46.07;101968.69;4947841;28;96951;-87